Time;durP1;ratioP1;P1;durP2;ratioP2;P2;SDS_P1;SDS_P2;PMS_P1;PMS_P2;Temp;Humidity;BMP_temperature;BMP_pressure;BME280_temperature;BME280_humidity;BME280_pressure;Samples;Min_cycle;Max_cycle;Signal;HPM_P1;HPM_P2
2021/06/12 00:01:09;;;;;;;;;;;17.20;99.90;;;;;;4930190;29;20036;-50
2021/06/12 00:03:36;;;;;;;14.52;3.97;;;17.20;99.90;;;;;;4930625;29;19926;-50
2021/06/12 00:06:03;;;;;;;7.57;4.63;;;17.10;99.90;;;;;;4930338;29;20106;-55
2021/06/12 00:08:29;;;;;;;12.63;4.70;;;17.00;99.90;;;;;;4930220;29;20044;-48
2021/06/12 00:10:54;;;;;;;;;;;17.00;99.90;;;;;;4933560;29;20044;-50
2021/06/12 00:13:20;;;;;;;5.85;3.65;;;16.90;99.90;;;;;;4933383;29;19985;-54
2021/06/12 00:15:45;;;;;;;;;;;17.00;99.90;;;;;;4933040;29;20134;-50
2021/06/12 00:18:11;;;;;;;8.23;4.03;;;17.00;99.90;;;;;;4934168;29;20203;-47
2021/06/12 00:20:38;;;;;;;;;;;16.90;99.90;;;;;;4934000;29;20190;-49
2021/06/12 00:23:04;;;;;;;6.40;4.00;;;16.90;99.90;;;;;;4930628;29;19922;-48
2021/06/12 00:25:30;;;;;;;6.80;3.53;;;16.90;99.90;;;;;;4931978;29;20058;-50
2021/06/12 00:27:59;;;;;;;;;;;16.80;99.90;;;;;;4933415;29;20040;-53
2021/06/12 00:30:26;;;;;;;8.27;3.50;;;16.70;99.90;;;;;;4935700;28;19919;-50
2021/06/12 00:32:53;;;;;;;9.43;4.35;;;16.70;99.90;;;;;;4952376;28;20043;-48
2021/06/12 00:35:19;;;;;;;12.07;5.00;;;16.70;99.90;;;;;;4952936;28;20454;-50
2021/06/12 00:37:44;;;;;;;12.25;3.97;;;16.70;99.90;;;;;;4951680;28;20047;-50
2021/06/12 00:40:11;;;;;;;;;;;16.70;99.90;;;;;;4952620;28;20499;-50
2021/06/12 00:42:37;;;;;;;9.05;4.00;;;16.70;99.90;;;;;;4952374;28;20057;-51
2021/06/12 00:45:06;;;;;;;5.30;3.25;;;16.70;99.90;;;;;;4950688;29;20506;-52
2021/06/12 00:47:32;;;;;;;7.05;3.78;;;16.70;99.90;;;;;;4951004;28;20039;-52
2021/06/12 00:49:57;;;;;;;;;;;16.70;99.90;;;;;;4953001;28;20054;-51
2021/06/12 00:52:23;;;;;;;6.22;3.97;;;16.70;99.90;;;;;;4951878;28;19970;-50
2021/06/12 00:54:48;;;;;;;;;;;16.70;99.90;;;;;;4951868;28;20111;-53
2021/06/12 00:57:15;;;;;;;7.05;4.15;;;16.70;99.90;;;;;;4935045;28;19969;-51
2021/06/12 00:59:40;;;;;;;5.53;4.38;;;16.70;99.90;;;;;;4931621;29;20474;-50
2021/06/12 01:02:06;;;;;;;;;;;16.70;99.90;;;;;;4932572;29;20044;-53
2021/06/12 01:04:31;;;;;;;8.27;4.95;;;16.70;99.90;;;;;;4933057;29;19919;-50
2021/06/12 01:06:57;;;;;;;;;;;16.70;99.90;;;;;;4934343;29;20047;-50
2021/06/12 01:09:23;;;;;;;10.70;4.43;;;16.70;99.90;;;;;;4933340;29;19923;-51
2021/06/12 01:11:54;;;;;;;;;;;16.60;99.90;;;;;;4934035;29;20074;-51
2021/06/12 01:14:22;;;;;;;8.73;4.20;;;16.60;99.90;;;;;;4933380;29;19917;-48
2021/06/12 01:17:15;;;;;;;6.10;4.10;;;16.60;99.90;;;;;;4932434;29;20079;-52
2021/06/12 01:19:54;;;;;;;6.75;4.28;;;16.50;99.90;;;;;;4932094;29;20590;-50
2021/06/12 01:22:27;;;;;;;5.07;4.00;;;16.60;99.90;;;;;;4933111;29;20444;-50
2021/06/12 01:25:07;;;;;;;7.28;5.10;;;16.60;99.90;;;;;;4932928;29;20440;-49
2021/06/12 01:28:02;;;;;;;7.57;5.28;;;16.40;99.90;;;;;;4932647;29;20043;-55
2021/06/12 01:30:32;;;;;;;10.48;5.55;;;16.40;99.90;;;;;;4940032;29;20130;-52
2021/06/12 01:33:02;;;;;;;7.90;4.55;;;16.40;99.90;;;;;;4933089;29;20044;-49
2021/06/12 01:35:39;;;;;;;11.57;4.22;;;16.50;99.90;;;;;;4932411;29;20047;-49
2021/06/12 01:38:06;;;;;;;9.15;4.50;;;16.50;99.90;;;;;;4931357;29;20111;-53
2021/06/12 01:40:39;;;;;;;6.85;4.65;;;16.50;99.90;;;;;;4933269;29;20047;-48
2021/06/12 01:43:09;;;;;;;9.75;4.50;;;16.50;99.90;;;;;;4932507;29;20070;-55
2021/06/12 01:45:35;;;;;;;15.30;5.15;;;16.50;99.90;;;;;;4932020;29;20740;-55
2021/06/12 01:48:02;;;;;;;8.80;4.43;;;16.50;99.90;;;;;;4931305;29;20701;-52
2021/06/12 01:50:28;;;;;;;13.77;4.82;;;16.50;99.90;;;;;;4932926;29;20051;-50
2021/06/12 01:52:56;;;;;;;9.40;4.55;;;16.50;99.90;;;;;;4932168;29;20039;-53
2021/06/12 01:55:32;;;;;;;12.30;5.13;;;16.50;99.90;;;;;;4932369;29;20054;-47
2021/06/12 01:58:01;;;;;;;9.20;4.80;;;16.50;99.90;;;;;;4932396;29;20058;-54
2021/06/12 02:00:27;;;;;;;11.98;4.57;;;16.40;99.90;;;;;;4927700;28;20055;-55
2021/06/12 02:02:54;;;;;;;10.90;5.78;;;16.40;99.90;;;;;;4930248;29;20046;-52
2021/06/12 02:05:22;;;;;;;11.50;4.93;;;16.40;99.90;;;;;;4931552;29;20408;-49
2021/06/12 02:07:49;;;;;;;11.48;5.28;;;16.40;99.90;;;;;;4931886;29;20055;-50
2021/06/12 02:10:21;;;;;;;14.32;5.47;;;16.40;99.90;;;;;;4930364;29;20142;-55
2021/06/12 02:12:49;;;;;;;11.52;5.90;;;16.30;99.90;;;;;;4931475;29;20138;-54
2021/06/12 02:15:15;;;;;;;12.70;6.25;;;16.30;99.90;;;;;;4931751;29;20142;-53
2021/06/12 02:17:40;;;;;;;11.13;6.45;;;16.30;99.90;;;;;;4931663;29;20064;-55
2021/06/12 02:20:08;;;;;;;;;;;16.30;99.90;;;;;;4932437;29;20035;-53
2021/06/12 02:22:39;;;;;;;;;;;16.30;99.90;;;;;;4932277;29;20290;-52
2021/06/12 02:25:07;;;;;;;12.55;6.38;;;16.30;99.90;;;;;;4932372;29;19922;-51
2021/06/12 02:27:35;;;;;;;11.75;6.82;;;16.40;99.90;;;;;;4931106;29;20525;-51
2021/06/12 02:30:01;;;;;;;13.60;6.72;;;16.40;99.90;;;;;;4931839;29;20040;-50
2021/06/12 02:32:28;;;;;;;14.27;6.88;;;16.40;99.90;;;;;;4929753;28;20051;-50
2021/06/12 02:34:54;;;;;;;11.98;6.38;;;16.30;99.90;;;;;;4931331;29;20047;-48
2021/06/12 02:37:19;;;;;;;;;;;16.30;99.90;;;;;;4931568;29;20048;-50
2021/06/12 02:39:45;;;;;;;14.20;6.63;;;16.20;99.90;;;;;;4932128;29;20714;-49
2021/06/12 02:42:10;;;;;;;;;;;16.10;99.90;;;;;;4932247;29;20629;-50
2021/06/12 02:44:36;;;;;;;8.65;5.15;;;16.10;99.90;;;;;;4930309;29;19919;-53
2021/06/12 02:47:07;;;;;;;;;;;16.10;99.90;;;;;;4930241;29;20043;-50
2021/06/12 02:49:36;;;;;;;11.18;6.38;;;16.20;99.90;;;;;;4931244;29;19919;-55
2021/06/12 02:52:09;;;;;;;11.50;6.80;;;16.20;99.90;;;;;;4931463;29;20071;-54
2021/06/12 02:54:37;;;;;;;10.27;6.22;;;16.20;99.90;;;;;;4931201;29;20066;-51
2021/06/12 02:57:04;;;;;;;13.43;6.38;;;16.10;99.90;;;;;;4931343;29;20054;-54
2021/06/12 02:59:31;;;;;;;9.00;4.70;;;16.30;99.90;;;;;;4939643;29;20079;-49
2021/06/12 03:01:58;;;;;;;13.02;6.72;;;16.30;99.90;;;;;;4933775;28;20039;-49
2021/06/12 03:04:24;;;;;;;10.00;6.05;;;16.20;99.90;;;;;;4939964;29;20054;-49
2021/06/12 03:06:51;;;;;;;13.65;5.47;;;16.30;99.90;;;;;;4934958;28;20058;-54
2021/06/12 03:09:23;;;;;;;10.45;5.20;;;16.30;99.90;;;;;;4950377;28;20053;-49
2021/06/12 03:11:51;;;;;;;11.25;5.65;;;16.30;99.90;;;;;;4958352;23;20507;-56
2021/06/12 03:14:18;;;;;;;9.75;4.72;;;16.30;99.90;;;;;;4969644;28;20403;-55
2021/06/12 03:16:46;;;;;;;9.18;4.40;;;16.30;99.90;;;;;;4968459;28;20565;-57
2021/06/12 03:19:15;;;;;;;10.55;4.55;;;16.40;99.90;;;;;;4970041;28;20097;-52
2021/06/12 03:21:42;;;;;;;7.18;5.22;;;16.40;99.90;;;;;;4969761;28;20661;-55
2021/06/12 03:24:09;;;;;;;7.20;4.72;;;16.40;99.90;;;;;;4970002;28;20043;-55
2021/06/12 03:26:35;;;;;;;9.38;5.10;;;16.50;99.90;;;;;;4968328;28;20050;-51
2021/06/12 03:29:04;;;;;;;;;;;16.50;99.90;;;;;;4957630;28;20097;-54
2021/06/12 03:31:30;;;;;;;7.68;4.18;;;16.50;99.90;;;;;;4967131;28;19922;-51
2021/06/12 03:33:56;;;;;;;;;;;16.50;99.90;;;;;;4955794;28;20039;-55
2021/06/12 03:36:24;;;;;;;5.50;3.85;;;16.60;99.90;;;;;;4950343;28;19929;-56
2021/06/12 03:38:50;;;;;;;11.88;4.60;;;16.60;99.90;;;;;;4949084;29;20039;-53
2021/06/12 03:41:16;;;;;;;;;;;16.60;99.90;;;;;;4950679;28;20046;-54
2021/06/12 03:43:42;;;;;;;6.60;3.88;;;16.60;99.90;;;;;;4950926;28;20310;-56
2021/06/12 03:46:08;;;;;;;;;;;16.60;99.90;;;;;;4954070;28;20807;-54
2021/06/12 03:48:34;;;;;;;7.35;3.25;;;16.70;99.90;;;;;;4953654;28;19930;-55
2021/06/12 03:51:01;;;;;;;6.32;3.42;;;16.60;99.90;;;;;;4953773;28;20106;-53
2021/06/12 03:53:43;;;;;;;7.30;3.50;;;16.70;99.90;;;;;;4953556;28;20051;-55
2021/06/12 03:56:09;;;;;;;8.13;4.05;;;16.70;99.90;;;;;;4961487;28;20042;-54
2021/06/12 03:58:34;;;;;;;;;;;16.70;99.90;;;;;;4972159;28;20058;-54
2021/06/12 04:01:00;;;;;;;7.28;4.05;;;16.70;99.90;;;;;;4958812;28;19919;-54
2021/06/12 04:03:25;;;;;;;;;;;16.70;99.90;;;;;;4954136;29;20070;-54
2021/06/12 04:05:51;;;;;;;9.48;3.83;;;16.70;99.90;;;;;;4950983;29;20673;-51
2021/06/12 04:08:16;;;;;;;;;;;16.80;99.90;;;;;;4951792;29;20054;-53
2021/06/12 04:10:42;;;;;;;15.25;6.22;;;16.80;99.90;;;;;;4953723;29;19926;-47
2021/06/12 04:13:07;;;;;;;;;;;16.70;99.90;;;;;;4953989;28;20045;-54
2021/06/12 04:15:33;;;;;;;9.00;4.63;;;16.70;99.90;;;;;;4951995;28;19922;-53
2021/06/12 04:18:07;;;;;;;;;;;16.70;99.90;;;;;;4953439;28;20043;-52
2021/06/12 04:20:37;;;;;;;7.43;4.80;;;16.80;99.90;;;;;;4953924;28;19922;-57
2021/06/12 04:23:03;;;;;;;11.05;5.03;;;16.70;99.90;;;;;;4953557;28;20051;-55
2021/06/12 04:25:29;;;;;;;;;;;16.70;99.90;;;;;;4953594;28;20039;-51
2021/06/12 04:27:54;;;;;;;7.95;4.88;;;16.80;99.90;;;;;;4953404;29;19919;-55
2021/06/12 04:30:21;;;;;;;;;;;16.80;99.90;;;;;;4953534;28;20074;-53
2021/06/12 04:32:46;;;;;;;8.77;6.00;;;16.80;99.90;;;;;;4953964;29;19919;-56
2021/06/12 04:35:13;;;;;;;;;;;16.90;99.90;;;;;;4945649;28;20043;-53
2021/06/12 04:37:38;;;;;;;7.50;5.47;;;16.80;99.90;;;;;;4951444;29;19981;-55
2021/06/12 04:40:04;;;;;;;;;;;16.90;99.90;;;;;;4949633;29;20436;-53
2021/06/12 04:42:30;;;;;;;10.27;5.55;;;16.90;99.90;;;;;;4952251;29;19925;-54
2021/06/12 04:44:55;;;;;;;;;;;16.90;99.90;;;;;;4953551;29;20039;-54
2021/06/12 04:47:21;;;;;;;11.73;5.40;;;16.90;99.90;;;;;;4952899;28;19925;-56
2021/06/12 04:49:46;;;;;;;;;;;16.90;99.90;;;;;;4953239;29;20054;-55
2021/06/12 04:52:12;;;;;;;11.18;4.95;;;16.90;99.90;;;;;;4953059;29;19922;-56
2021/06/12 04:54:37;;;;;;;;;;;16.90;99.90;;;;;;4953623;29;20047;-54
2021/06/12 04:57:04;;;;;;;8.75;5.45;;;16.90;99.90;;;;;;4951788;28;19926;-61
2021/06/12 04:59:29;;;;;;;9.00;5.32;;;16.90;99.90;;;;;;4949285;29;20035;-51
2021/06/12 05:01:55;;;;;;;;;;;16.90;99.90;;;;;;4952293;28;20415;-52
2021/06/12 05:04:20;;;;;;;7.47;4.32;;;16.90;99.90;;;;;;4952652;29;20466;-53
2021/06/12 05:06:46;;;;;;;;;;;17.00;99.90;;;;;;4952571;29;20047;-60
2021/06/12 05:09:11;;;;;;;7.63;4.78;;;16.90;99.90;;;;;;4952712;29;19949;-57
2021/06/12 05:11:37;;;;;;;;;;;16.90;99.90;;;;;;4951609;29;20071;-61
2021/06/12 05:14:02;;;;;;;7.03;4.25;;;16.90;99.90;;;;;;4951090;29;20369;-50
2021/06/12 05:16:28;;;;;;;;;;;17.00;99.90;;;;;;4951697;28;20108;-56
2021/06/12 05:18:53;;;;;;;11.10;5.22;;;17.00;99.90;;;;;;4952241;29;19985;-56
2021/06/12 05:21:19;;;;;;;;;;;16.90;99.90;;;;;;4952715;29;20050;-51
2021/06/12 05:23:44;;;;;;;7.15;5.20;;;16.90;99.90;;;;;;4952632;29;19918;-55
2021/06/12 05:26:11;;;;;;;;;;;16.90;99.90;;;;;;4952169;29;20043;-54
2021/06/12 05:28:37;;;;;;;7.50;4.03;;;16.90;99.90;;;;;;4951302;29;19918;-57
2021/06/12 05:31:03;;;;;;;;;;;17.00;99.90;;;;;;4952154;28;20070;-55
2021/06/12 05:33:30;;;;;;;9.43;4.28;;;17.00;99.90;;;;;;4948339;29;19918;-55
2021/06/12 05:35:56;;;;;;;5.55;3.90;;;16.90;99.90;;;;;;4932913;29;20058;-55
2021/06/12 05:38:22;;;;;;;6.95;4.40;;;17.00;99.90;;;;;;4932515;29;20047;-54
2021/06/12 05:40:47;;;;;;;;;;;17.00;99.90;;;;;;4934089;29;20046;-56
2021/06/12 05:43:13;;;;;;;7.10;3.75;;;17.10;99.90;;;;;;4933151;29;19919;-56
2021/06/12 05:45:38;;;;;;;;;;;17.10;99.90;;;;;;4938187;28;20118;-55
2021/06/12 05:48:05;;;;;;;4.45;3.53;;;17.10;99.90;;;;;;4965523;28;19922;-53
2021/06/12 05:50:30;;;;;;;9.05;4.03;;;17.20;99.90;;;;;;4966710;28;20046;-56
2021/06/12 05:52:56;;;;;;;;;;;17.20;99.90;;;;;;4964195;28;20034;-54
2021/06/12 05:55:21;;;;;;;6.63;4.03;;;17.20;99.90;;;;;;4971122;28;19961;-55
2021/06/12 05:57:47;;;;;;;;;;;17.20;99.90;;;;;;4967716;28;20129;-49
2021/06/12 06:00:13;;;;;;;8.57;3.88;;;17.20;99.90;;;;;;4963503;28;19924;-50
2021/06/12 06:02:39;;;;;;;7.57;4.15;;;17.20;99.90;;;;;;4951738;29;20036;-52
2021/06/12 06:05:04;;;;;;;;;;;17.10;99.90;;;;;;4951794;29;20529;-54
2021/06/12 06:07:30;;;;;;;4.35;3.10;;;17.20;99.90;;;;;;4950664;28;20344;-56
2021/06/12 06:09:56;;;;;;;;;;;17.20;99.90;;;;;;4950900;29;20150;-50
2021/06/12 06:12:21;;;;;;;10.52;4.55;;;17.30;99.90;;;;;;4951449;29;20029;-52
2021/06/12 06:14:46;;;;;;;;;;;17.50;99.90;;;;;;4952224;29;20043;-52
2021/06/12 06:17:12;;;;;;;8.80;3.75;;;17.70;99.90;;;;;;4949836;28;19929;-55
2021/06/12 06:19:37;;;;;;;;;;;18.00;99.90;;;;;;4951754;29;20071;-56
2021/06/12 06:22:03;;;;;;;6.30;3.15;;;18.00;99.90;;;;;;4956831;28;19923;-54
2021/06/12 06:24:29;;;;;;;;;;;18.00;99.90;;;;;;4970673;28;20054;-51
2021/06/12 06:26:54;;;;;;;4.85;3.05;;;17.90;99.90;;;;;;4965999;28;19977;-53
2021/06/12 06:29:20;;;;;;;;;;;17.90;99.90;;;;;;4966731;28;20086;-52
2021/06/12 06:31:46;;;;;;;4.93;3.30;;;17.80;99.90;;;;;;4970313;28;19926;-57
2021/06/12 06:34:11;;;;;;;;;;;17.70;99.90;;;;;;4970833;28;20073;-55
2021/06/12 06:36:38;;;;;;;5.43;2.70;;;17.70;99.90;;;;;;4969898;28;20319;-56
2021/06/12 06:39:04;;;;;;;5.45;3.28;;;17.70;99.90;;;;;;4970581;28;20046;-53
2021/06/12 06:41:29;;;;;;;;;;;17.70;99.90;;;;;;4970735;28;20053;-55
2021/06/12 06:43:54;;;;;;;6.47;2.75;;;17.70;99.90;;;;;;4969876;28;20315;-55
2021/06/12 06:46:20;;;;;;;;;;;17.80;99.90;;;;;;4969371;28;20035;-55
2021/06/12 06:48:45;;;;;;;8.50;3.05;;;17.70;99.90;;;;;;4959505;28;19926;-53
2021/06/12 06:51:11;;;;;;;4.25;2.47;;;17.80;99.90;;;;;;4950977;29;20411;-52
2021/06/12 06:53:37;;;;;;;;;;;17.70;99.90;;;;;;4951123;29;20388;-53
2021/06/12 06:56:04;;;;;;;3.92;2.58;;;17.70;99.90;;;;;;4957817;28;19918;-53
2021/06/12 06:58:30;;;;;;;9.60;2.88;;;17.70;99.90;;;;;;4960027;28;20083;-56
2021/06/12 07:00:55;;;;;;;;;;;17.70;99.90;;;;;;4953301;28;20086;-54
2021/06/12 07:03:21;;;;;;;3.42;2.55;;;17.70;99.90;;;;;;4970046;28;19969;-56
2021/06/12 07:05:47;;;;;;;;;;;17.90;99.90;;;;;;4951144;28;20082;-52
2021/06/12 07:08:13;;;;;;;6.35;3.05;;;18.10;99.90;;;;;;4950338;29;19954;-56
2021/06/12 07:10:38;;;;;;;;;;;18.30;99.90;;;;;;4949373;28;20188;-54
2021/06/12 07:13:04;;;;;;;5.40;3.30;;;18.40;99.90;;;;;;4950773;29;20514;-57
2021/06/12 07:15:29;;;;;;;;;;;18.60;99.90;;;;;;4950634;28;20042;-53
2021/06/12 07:17:55;;;;;;;5.13;3.53;;;18.80;99.90;;;;;;4950152;28;20087;-55
2021/06/12 07:20:21;;;;;;;;;;;19.10;99.90;;;;;;4950941;28;20058;-57
2021/06/12 07:22:46;;;;;;;3.55;2.60;;;19.00;99.90;;;;;;4950868;28;19966;-53
2021/06/12 07:25:12;;;;;;;3.72;2.47;;;19.10;99.90;;;;;;4950284;28;20023;-55
2021/06/12 07:27:38;;;;;;;9.25;2.67;;;19.10;99.90;;;;;;4949607;29;20162;-53
2021/06/12 07:30:05;;;;;;;;;;;19.00;99.90;;;;;;4950963;29;20551;-55
2021/06/12 07:32:31;;;;;;;4.40;2.33;;;19.00;99.40;;;;;;4950012;28;19994;-53
2021/06/12 07:34:56;;;;;;;3.05;2.42;;;19.10;99.90;;;;;;4948097;29;20043;-57
2021/06/12 07:37:22;;;;;;;;;;;19.10;99.90;;;;;;4941708;29;20415;-55
2021/06/12 07:39:48;;;;;;;4.75;2.22;;;19.00;99.80;;;;;;4951173;29;19976;-53
2021/06/12 07:42:13;;;;;;;;;;;19.00;99.80;;;;;;4950557;28;20043;-54
2021/06/12 07:44:39;;;;;;;3.30;2.10;;;19.10;99.90;;;;;;4950400;28;19922;-52
2021/06/12 07:47:04;;;;;;;;;;;19.20;99.10;;;;;;4950678;28;20047;-51
2021/06/12 07:49:30;;;;;;;5.03;2.45;;;19.10;98.40;;;;;;4950856;28;19926;-53
2021/06/12 07:51:55;;;;;;;;;;;19.00;98.40;;;;;;4950831;28;20130;-49
2021/06/12 07:54:21;;;;;;;4.47;1.35;;;19.10;98.80;;;;;;4950269;28;19930;-55
2021/06/12 07:56:46;;;;;;;;;;;19.20;98.60;;;;;;4950502;28;20126;-54
2021/06/12 07:59:12;;;;;;;4.43;1.88;;;19.40;98.40;;;;;;4947596;29;19933;-50
2021/06/12 08:01:38;;;;;;;12.05;2.70;;;19.50;99.10;;;;;;4947959;28;20048;-53
2021/06/12 08:04:03;;;;;;;2.72;2.00;;;19.80;97.50;;;;;;4950387;28;20071;-54
2021/06/12 08:06:29;;;;;;;6.97;2.65;;;20.00;97.90;;;;;;4950334;28;20423;-57
2021/06/12 08:08:55;;;;;;;;;;;20.40;96.10;;;;;;4950697;28;20506;-56
2021/06/12 08:11:20;;;;;;;3.72;2.15;;;20.50;95.90;;;;;;4941362;28;19926;-54
2021/06/12 08:13:46;;;;;;;4.95;2.20;;;20.40;94.70;;;;;;4942841;28;20047;-52
2021/06/12 08:16:12;;;;;;;7.25;1.80;;;20.30;95.20;;;;;;4949740;28;20047;-56
2021/06/12 08:18:37;;;;;;;3.58;2.30;;;20.30;96.10;;;;;;4949989;29;20462;-56
2021/06/12 08:21:03;;;;;;;3.65;1.98;;;20.20;95.40;;;;;;4950269;29;20043;-57
2021/06/12 08:23:29;;;;;;;;;;;20.20;96.20;;;;;;4950517;29;20062;-55
2021/06/12 08:25:54;;;;;;;4.13;2.58;;;20.00;95.30;;;;;;4949100;29;19922;-51
2021/06/12 08:28:20;;;;;;;;;;;20.00;96.60;;;;;;4950014;29;20105;-51
2021/06/12 08:30:45;;;;;;;6.30;2.70;;;20.10;95.60;;;;;;4950626;28;19922;-54
2021/06/12 08:33:11;;;;;;;3.75;2.25;;;20.40;96.50;;;;;;4953282;29;20075;-56
2021/06/12 08:35:38;;;;;;;5.15;2.80;;;21.20;94.40;;;;;;4953197;28;20471;-54
2021/06/12 08:38:05;;;;;;;5.93;2.85;;;21.80;93.70;;;;;;4952957;28;20055;-56
2021/06/12 08:40:30;;;;;;;7.78;2.50;;;22.20;92.90;;;;;;4953329;28;20065;-55
2021/06/12 08:42:57;;;;;;;4.50;2.42;;;22.00;92.10;;;;;;4952984;28;20570;-50
2021/06/12 08:45:28;;;;;;;3.95;2.30;;;22.00;92.40;;;;;;4947367;28;20126;-54
2021/06/12 08:47:56;;;;;;;4.07;2.45;;;21.80;93.00;;;;;;4945915;29;20130;-57
2021/06/12 08:50:23;;;;;;;4.05;2.28;;;21.60;93.00;;;;;;4946094;29;20046;-57
2021/06/12 08:52:50;;;;;;;2.92;2.35;;;21.20;93.90;;;;;;4952269;29;20053;-53
2021/06/12 08:55:16;;;;;;;4.07;2.60;;;21.10;94.50;;;;;;4953325;28;20138;-54
2021/06/12 08:57:42;;;;;;;3.38;2.33;;;21.10;94.60;;;;;;4952433;29;20051;-56
2021/06/12 09:00:09;;;;;;;4.72;2.92;;;21.20;95.00;;;;;;4952320;29;20047;-56
2021/06/12 09:03:02;;;;;;;3.42;2.60;;;21.10;93.50;;;;;;4952179;28;20507;-53
2021/06/12 09:05:38;;;;;;;9.48;2.80;;;21.10;93.50;;;;;;4952443;29;20035;-57
2021/06/12 09:08:08;;;;;;;5.40;2.60;;;21.10;94.00;;;;;;4952579;28;20562;-54
2021/06/12 09:10:42;;;;;;;9.25;3.10;;;20.90;93.90;;;;;;4953285;28;20070;-55
2021/06/12 09:13:08;;;;;;;6.22;3.35;;;20.40;93.60;;;;;;4952671;28;20047;-55
2021/06/12 09:15:33;;;;;;;;;;;20.10;94.40;;;;;;4952107;28;20047;-55
2021/06/12 09:17:59;;;;;;;3.80;2.47;;;19.90;95.00;;;;;;4952486;29;19922;-52
2021/06/12 09:20:27;;;;;;;;;;;19.70;96.40;;;;;;4953223;28;20047;-52
2021/06/12 09:23:10;;;;;;;9.18;4.25;;;19.50;96.30;;;;;;4943338;28;20740;-56
2021/06/12 09:25:41;;;;;;;4.55;3.78;;;19.30;98.10;;;;;;4949727;29;20098;-56
2021/06/12 09:28:06;;;;;;;7.45;3.92;;;19.20;97.80;;;;;;4948624;28;20105;-53
2021/06/12 09:30:32;;;;;;;;;;;19.10;99.70;;;;;;4951356;28;21110;-56
2021/06/12 09:32:58;;;;;;;7.00;4.30;;;19.00;99.90;;;;;;4951905;29;19929;-52
2021/06/12 09:35:35;;;;;;;6.80;4.30;;;18.80;99.90;;;;;;4951760;29;20055;-52
2021/06/12 09:38:01;;;;;;;8.18;5.53;;;18.60;99.90;;;;;;4951409;29;20051;-55
2021/06/12 09:40:32;;;;;;;16.13;6.53;;;18.40;99.90;;;;;;4952183;29;20047;-53
2021/06/12 09:43:00;;;;;;;10.18;7.18;;;18.50;99.90;;;;;;4951519;28;20521;-52
2021/06/12 09:45:34;;;;;;;17.10;12.32;;;18.40;99.90;;;;;;4950682;28;20047;-56
2021/06/12 09:48:10;;;;;;;12.77;8.38;;;18.30;99.90;;;;;;4951654;29;20078;-53
2021/06/12 09:50:36;;;;;;;8.27;6.13;;;18.40;99.90;;;;;;4951573;28;20687;-53
2021/06/12 09:53:16;;;;;;;16.80;9.10;;;18.40;99.90;;;;;;4951609;29;20039;-56
2021/06/12 09:55:42;;;;;;;9.23;7.28;;;18.50;99.90;;;;;;4951608;29;20487;-53
2021/06/12 09:58:07;;;;;;;;;;;18.40;99.90;;;;;;4942359;29;20043;-55
2021/06/12 10:00:34;;;;;;;11.15;8.50;;;18.30;99.90;;;;;;4946681;28;19922;-51
2021/06/12 10:03:01;;;;;;;12.10;8.23;;;18.20;99.90;;;;;;4951616;29;20495;-54
2021/06/12 10:05:27;;;;;;;16.02;8.57;;;18.10;99.90;;;;;;4947530;29;20074;-54
2021/06/12 10:07:53;;;;;;;;;;;18.10;99.90;;;;;;4950463;28;20047;-55
2021/06/12 10:10:19;;;;;;;13.75;10.85;;;18.00;99.90;;;;;;4951675;28;19918;-54
2021/06/12 10:12:46;;;;;;;10.82;8.38;;;18.00;99.90;;;;;;4951405;28;20076;-53
2021/06/12 10:15:13;;;;;;;14.18;9.25;;;17.90;99.90;;;;;;4950122;28;20050;-62
2021/06/12 10:17:45;;;;;;;13.48;9.13;;;18.00;99.90;;;;;;4950201;28;20051;-56
2021/06/12 10:20:12;;;;;;;12.45;8.95;;;18.00;99.90;;;;;;4950868;28;20043;-55
2021/06/12 10:22:42;;;;;;;11.90;8.20;;;17.80;99.90;;;;;;4950342;28;20063;-52
2021/06/12 10:25:09;;;;;;;13.25;9.02;;;17.90;99.90;;;;;;4951390;28;20043;-55
2021/06/12 10:27:36;;;;;;;12.73;8.20;;;17.80;99.90;;;;;;4950019;29;20058;-57
2021/06/12 10:30:02;;;;;;;7.93;5.30;;;17.50;99.90;;;;;;4949901;28;20118;-56
2021/06/12 10:32:28;;;;;;;;;;;17.20;99.90;;;;;;4950326;28;20118;-57
2021/06/12 10:34:53;;;;;;;7.43;5.72;;;16.90;99.90;;;;;;4949014;29;19999;-52
2021/06/12 10:37:19;;;;;;;;;;;16.80;99.90;;;;;;4944177;29;20051;-52
2021/06/12 10:39:45;;;;;;;7.20;5.60;;;16.80;99.90;;;;;;4949821;29;19965;-53
2021/06/12 10:42:17;;;;;;;;;;;16.80;99.90;;;;;;4949866;29;20062;-57
2021/06/12 10:44:48;;;;;;;13.60;10.00;;;17.10;99.90;;;;;;4950680;28;19981;-53
2021/06/12 10:47:33;;;;;;;14.38;8.70;;;17.10;99.90;;;;;;4950158;28;20566;-51
2021/06/12 10:49:58;;;;;;;14.57;11.80;;;17.30;99.90;;;;;;4949006;29;20632;-50
2021/06/12 10:52:41;;;;;;;;;;;17.60;99.90;;;;;;4950903;28;20133;-51
2021/06/12 10:55:54;;;;;;;7.90;6.35;;;17.90;99.90;;;;;;4950593;28;19954;-56
2021/06/12 10:58:35;;;;;;;10.90;7.78;;;18.00;99.90;;;;;;4939858;29;20499;-52
2021/06/12 11:01:07;;;;;;;9.95;7.88;;;18.10;99.90;;;;;;4943881;28;20047;-52
2021/06/12 11:06:36;;;;;;;17.02;13.02;;;18.00;99.90;;;;;;4950188;29;20054;-54
2021/06/12 11:09:25;;;;;;;;;;;17.90;99.90;;;;;;4950736;29;20043;-53
2021/06/12 11:11:56;;;;;;;18.48;14.40;;;17.90;99.90;;;;;;4937175;29;19922;-54
2021/06/12 11:14:24;;;;;;;23.75;15.55;;;17.90;99.90;;;;;;4941504;29;20456;-53
2021/06/12 11:17:08;;;;;;;21.27;17.15;;;18.00;99.90;;;;;;4942877;28;20039;-55
2021/06/12 11:19:42;;;;;;;24.23;18.15;;;18.20;99.90;;;;;;4950419;28;20054;-51
2021/06/12 11:22:46;;;;;;;24.55;18.67;;;18.20;99.90;;;;;;4949997;28;20047;-56
2021/06/12 11:25:11;;;;;;;25.77;19.17;;;17.90;99.90;;;;;;4953845;28;20487;-52
2021/06/12 11:27:41;;;;;;;;;;;17.60;99.90;;;;;;4966645;28;20043;-54
2021/06/12 11:30:13;;;;;;;28.27;18.85;;;17.70;99.90;;;;;;4968393;28;19926;-53
2021/06/12 11:33:01;;;;;;;22.95;16.70;;;17.60;99.90;;;;;;4969334;28;20039;-56
2021/06/12 11:35:56;;;;;;;20.27;16.33;;;18.00;99.90;;;;;;4968595;28;20046;-53
2021/06/12 11:38:21;;;;;;;20.67;16.38;;;18.40;99.90;;;;;;4969719;28;20047;-52
2021/06/12 11:40:50;;;;;;;;;;;18.70;99.90;;;;;;4969736;28;20053;-54
2021/06/12 11:43:33;;;;;;;19.48;15.27;;;18.80;99.90;;;;;;4969269;28;19918;-53
2021/06/12 11:46:00;;;;;;;21.70;15.38;;;19.00;99.90;;;;;;4964739;28;20041;-50
2021/06/12 11:48:26;;;;;;;21.88;14.30;;;19.00;99.90;;;;;;4957735;28;20054;-57
2021/06/12 11:50:52;;;;;;;;;;;19.10;99.90;;;;;;4965587;28;20051;-54
2021/06/12 11:53:23;;;;;;;16.52;12.20;;;19.30;99.90;;;;;;4965385;28;19925;-56
2021/06/12 11:55:59;;;;;;;16.67;12.73;;;19.40;99.90;;;;;;4961671;28;20442;-52
2021/06/12 11:58:24;;;;;;;;;;;19.50;99.90;;;;;;4958107;28;20034;-52
2021/06/12 12:00:50;;;;;;;15.27;12.65;;;19.40;99.90;;;;;;4968322;28;19918;-56
2021/06/12 12:03:18;;;;;;;18.35;13.18;;;19.50;99.90;;;;;;4969623;28;20248;-55
2021/06/12 12:05:49;;;;;;;15.10;12.45;;;19.40;99.50;;;;;;4970902;28;20394;-56
2021/06/12 12:08:22;;;;;;;17.35;13.98;;;19.40;99.90;;;;;;4973481;28;20525;-54
2021/06/12 12:10:54;;;;;;;15.93;12.15;;;19.30;99.60;;;;;;4971686;28;20125;-54
2021/06/12 12:16:19;;;;;;;17.58;13.35;;;19.10;99.90;;;;;;4972441;28;20049;-56
2021/06/12 12:18:48;;;;;;;16.40;13.02;;;19.00;99.60;;;;;;4972244;28;20051;-52
2021/06/12 12:21:13;;;;;;;18.17;13.98;;;18.80;99.90;;;;;;4972701;28;20045;-56
2021/06/12 12:23:39;;;;;;;;;;;18.60;99.90;;;;;;4972431;28;20473;-55
2021/06/12 12:26:15;;;;;;;16.63;12.30;;;18.50;99.90;;;;;;4963673;28;19923;-53
2021/06/12 12:29:07;;;;;;;17.60;13.93;;;18.50;99.90;;;;;;4968182;28;20050;-55
2021/06/12 12:31:39;;;;;;;13.90;12.18;;;18.60;99.90;;;;;;4969076;28;20077;-57
2021/06/12 12:34:05;;;;;;;27.38;14.85;;;18.80;99.90;;;;;;4972395;28;20145;-58
2021/06/12 12:36:40;;;;;;;;;;;18.70;99.90;;;;;;4972810;28;20129;-56
2021/06/12 12:39:05;;;;;;;15.50;12.15;;;18.70;99.80;;;;;;4971861;28;19922;-55
2021/06/12 12:41:31;;;;;;;;;;;18.90;99.40;;;;;;4972696;28;20054;-57
2021/06/12 12:44:27;;;;;;;13.65;10.40;;;19.10;99.20;;;;;;4972482;28;19922;-55
2021/06/12 12:46:54;;;;;;;17.35;13.60;;;19.30;98.80;;;;;;4966047;28;20046;-55
2021/06/12 12:49:30;;;;;;;19.83;11.48;;;19.10;99.20;;;;;;4972771;28;20050;-57
2021/06/12 12:52:01;;;;;;;;;;;18.90;99.80;;;;;;4972069;28;20051;-51
2021/06/12 12:54:33;;;;;;;17.52;13.70;;;18.60;99.10;;;;;;4971997;28;19949;-54
2021/06/12 12:57:05;;;;;;;20.02;12.48;;;18.40;99.70;;;;;;4971206;28;20051;-53
2021/06/12 12:59:37;;;;;;;13.50;10.35;;;18.30;99.90;;;;;;4970038;28;20049;-57
2021/06/12 13:02:08;;;;;;;15.05;11.77;;;18.30;99.90;;;;;;4951105;28;20078;-54
2021/06/12 13:04:43;;;;;;;16.55;11.35;;;18.20;99.90;;;;;;4953250;28;20074;-54
2021/06/12 13:07:24;;;;;;;15.68;10.73;;;18.10;99.90;;;;;;4952009;28;20636;-55
2021/06/12 13:09:59;;;;;;;12.95;10.57;;;18.00;99.90;;;;;;4952939;28;20082;-55
2021/06/12 13:12:25;;;;;;;19.58;12.15;;;18.00;99.90;;;;;;4951683;28;20582;-49
2021/06/12 13:15:00;;;;;;;17.67;11.27;;;17.90;99.90;;;;;;4951887;28;20486;-54